Time;durP1;ratioP1;P1;durP2;ratioP2;P2;SDS_P1;SDS_P2;PMS_P1;PMS_P2;Temp;Humidity;BMP_temperature;BMP_pressure;BME280_temperature;BME280_humidity;BME280_pressure;Samples;Min_cycle;Max_cycle;Signal;HPM_P1;HPM_P2
2021/11/26 00:01:48;;;;;;;62.97;31.80;;;4.90;75.00;;;;;;4630362;28;20171;-76
2021/11/26 00:04:05;;;;;;;62.20;32.58;;;4.90;75.70;;;;;;4631360;28;20045;-76
2021/11/26 00:06:22;;;;;;;60.65;32.67;;;4.90;74.90;;;;;;4648146;28;20411;-76
2021/11/26 00:08:39;;;;;;;60.88;31.85;;;4.90;74.90;;;;;;4631554;28;20080;-76
2021/11/26 00:10:58;;;;;;;62.35;31.33;;;4.90;74.90;;;;;;4629953;28;20091;-76
2021/11/26 00:13:17;;;;;;;61.15;32.28;;;4.90;74.90;;;;;;4631546;28;20049;-77
2021/11/26 00:15:40;;;;;;;62.13;32.95;;;4.90;74.80;;;;;;4648277;28;20087;-77
2021/11/26 00:17:58;;;;;;;62.67;31.85;;;4.90;74.90;;;;;;4631132;28;20129;-78
2021/11/26 00:20:14;;;;;;;59.15;30.00;;;4.80;75.00;;;;;;4630548;28;20041;-78
2021/11/26 00:22:31;;;;;;;56.65;30.25;;;4.90;75.80;;;;;;4631256;28;20053;-78
2021/11/26 00:24:49;;;;;;;55.22;29.50;;;4.90;75.00;;;;;;4630667;28;20114;-75
2021/11/26 00:27:06;;;;;;;59.58;32.20;;;4.90;75.00;;;;;;4630552;28;20530;-77
2021/11/26 00:29:23;;;;;;;60.08;31.80;;;4.90;75.00;;;;;;4630970;28;20088;-75
2021/11/26 00:31:43;;;;;;;60.58;31.42;;;4.80;75.00;;;;;;4630488;28;20527;-75
2021/11/26 00:33:59;;;;;;;59.00;31.10;;;4.80;75.00;;;;;;4630921;28;20480;-75
2021/11/26 00:36:16;;;;;;;61.20;31.00;;;4.90;75.00;;;;;;4630029;28;20451;-76
2021/11/26 00:38:32;;;;;;;59.50;32.30;;;4.80;75.00;;;;;;4648925;28;20064;-75
2021/11/26 00:40:49;;;;;;;64.32;33.53;;;4.80;75.00;;;;;;4629877;28;20049;-75
2021/11/26 00:43:05;;;;;;;59.08;31.40;;;4.80;75.90;;;;;;4631089;28;20076;-75
2021/11/26 00:45:23;;;;;;;58.58;31.95;;;4.80;75.20;;;;;;4647706;28;20052;-75
2021/11/26 00:47:42;;;;;;;60.88;32.08;;;4.90;75.30;;;;;;4648961;28;20052;-75
2021/11/26 00:49:59;;;;;;;59.35;31.60;;;4.90;75.20;;;;;;4629770;28;20034;-75
2021/11/26 00:52:15;;;;;;;57.42;32.17;;;4.90;75.10;;;;;;4629542;28;20037;-75
2021/11/26 00:54:32;;;;;;;60.13;31.42;;;4.90;75.20;;;;;;4629523;28;20045;-75
2021/11/26 00:56:48;;;;;;;61.63;31.88;;;4.90;75.10;;;;;;4629339;28;20083;-75
2021/11/26 00:59:04;;;;;;;57.63;32.40;;;4.90;76.00;;;;;;4630263;28;20049;-75
2021/11/26 01:01:21;;;;;;;61.05;32.92;;;4.90;75.30;;;;;;4632788;28;20052;-75
2021/11/26 01:03:43;;;;;;;60.30;32.38;;;4.90;75.30;;;;;;4633483;28;20172;-75
2021/11/26 01:06:00;;;;;;;62.60;32.28;;;4.90;75.30;;;;;;4633445;28;20048;-76
2021/11/26 01:08:17;;;;;;;59.85;31.08;;;4.90;75.30;;;;;;4633590;28;20041;-75
2021/11/26 01:10:34;;;;;;;56.70;31.65;;;4.90;75.30;;;;;;4633210;28;20068;-75
2021/11/26 01:12:51;;;;;;;58.90;31.85;;;4.90;75.30;;;;;;4632448;28;20505;-75
2021/11/26 01:15:10;;;;;;;63.10;32.25;;;4.80;75.30;;;;;;4633103;28;20041;-75
2021/11/26 01:17:26;;;;;;;57.50;31.63;;;4.80;75.50;;;;;;4633762;28;20071;-75
2021/11/26 01:19:45;;;;;;;62.22;32.78;;;4.90;75.60;;;;;;4631380;28;20410;-77
2021/11/26 01:22:01;;;;;;;59.90;31.83;;;4.90;75.60;;;;;;4633875;28;20052;-77
2021/11/26 01:24:18;;;;;;;59.90;30.98;;;4.90;75.40;;;;;;4632544;28;20075;-77
2021/11/26 01:26:37;;;;;;;60.03;31.77;;;5.00;75.40;;;;;;4632704;28;20132;-77
2021/11/26 01:28:53;;;;;;;54.00;30.02;;;5.00;75.30;;;;;;4631386;28;20056;-76
2021/11/26 01:31:10;;;;;;;56.72;31.05;;;5.00;75.30;;;;;;4632507;28;20554;-75
2021/11/26 01:33:27;;;;;;;58.90;31.05;;;5.00;75.30;;;;;;4631021;28;20049;-75
2021/11/26 01:35:49;;;;;;;55.97;31.95;;;5.00;75.40;;;;;;4633830;28;20041;-75
2021/11/26 01:38:07;;;;;;;60.08;32.00;;;5.00;75.40;;;;;;4632714;28;20079;-75
2021/11/26 01:40:24;;;;;;;59.67;30.70;;;5.00;75.60;;;;;;4631734;28;20487;-75
2021/11/26 01:42:43;;;;;;;59.03;32.03;;;5.00;75.60;;;;;;4631596;28;20398;-75
2021/11/26 01:45:00;;;;;;;59.85;32.47;;;5.00;75.50;;;;;;4631355;28;20146;-75
2021/11/26 01:47:17;;;;;;;58.50;30.60;;;5.10;75.70;;;;;;4632952;28;20102;-76
2021/11/26 01:49:33;;;;;;;57.63;30.70;;;5.10;75.70;;;;;;4631492;28;20570;-77
2021/11/26 01:51:51;;;;;;;57.40;31.60;;;5.10;75.70;;;;;;4631778;28;20455;-75
2021/11/26 01:54:08;;;;;;;56.28;31.55;;;5.10;75.70;;;;;;4647275;28;20414;-75
2021/11/26 01:56:26;;;;;;;55.80;31.85;;;5.10;75.70;;;;;;4651670;28;20051;-75
2021/11/26 01:58:43;;;;;;;58.08;31.33;;;5.20;75.80;;;;;;4650946;28;20087;-74
2021/11/26 02:01:03;;;;;;;56.35;31.15;;;5.10;75.70;;;;;;4651157;28;20048;-77
2021/11/26 02:03:19;;;;;;;60.72;32.75;;;5.10;75.80;;;;;;4632122;28;20506;-76
2021/11/26 02:05:37;;;;;;;60.28;30.23;;;5.10;75.80;;;;;;4633665;28;20585;-76
2021/11/26 02:07:54;;;;;;;58.25;30.90;;;5.10;75.80;;;;;;4649854;28;20052;-76
2021/11/26 02:10:11;;;;;;;55.78;30.60;;;5.10;76.00;;;;;;4650983;28;20422;-77
2021/11/26 02:12:28;;;;;;;54.10;29.27;;;5.10;76.00;;;;;;4631523;28;20491;-76
2021/11/26 02:14:47;;;;;;;59.13;31.83;;;5.10;76.10;;;;;;4651202;28;20071;-76
2021/11/26 02:17:04;;;;;;;56.97;31.60;;;5.10;76.20;;;;;;4650226;28;20410;-76
2021/11/26 02:19:22;;;;;;;56.50;30.75;;;5.10;76.10;;;;;;4632687;28;20092;-76
2021/11/26 02:21:41;;;;;;;54.50;30.40;;;5.10;76.10;;;;;;4650485;28;20037;-76
2021/11/26 02:23:58;;;;;;;62.58;31.83;;;5.10;76.20;;;;;;4632731;28;20549;-77
2021/11/26 02:26:14;;;;;;;59.08;30.35;;;5.10;76.20;;;;;;4632432;28;20491;-76
2021/11/26 02:28:33;;;;;;;63.20;31.17;;;5.10;76.20;;;;;;4650081;28;20059;-77
2021/11/26 02:30:49;;;;;;;59.55;31.17;;;5.10;76.40;;;;;;4632682;28;20432;-76
2021/11/26 02:33:10;;;;;;;58.45;31.60;;;5.10;76.50;;;;;;4631968;28;20075;-76
2021/11/26 02:35:28;;;;;;;61.63;31.73;;;5.20;76.60;;;;;;4650811;28;20498;-76
2021/11/26 02:37:49;;;;;;;54.58;30.88;;;5.20;76.50;;;;;;4631657;28;20051;-76
2021/11/26 02:40:07;;;;;;;59.53;29.58;;;5.20;76.50;;;;;;4650799;28;20471;-75
2021/11/26 02:42:25;;;;;;;56.65;30.55;;;5.20;76.50;;;;;;4649321;28;20441;-77
2021/11/26 02:44:41;;;;;;;52.15;29.48;;;5.30;76.60;;;;;;4650858;28;20052;-76
2021/11/26 02:46:58;;;;;;;57.05;32.38;;;5.30;76.50;;;;;;4631264;28;20534;-76
2021/11/26 02:49:14;;;;;;;57.10;31.58;;;5.30;76.50;;;;;;4632712;28;20048;-75
2021/11/26 02:51:31;;;;;;;61.17;31.00;;;5.30;76.50;;;;;;4631355;28;20044;-76
2021/11/26 02:53:49;;;;;;;60.45;30.75;;;5.30;76.60;;;;;;4632374;28;20076;-75
2021/11/26 02:56:06;;;;;;;55.42;29.73;;;5.40;76.70;;;;;;4649796;28;20119;-75
2021/11/26 02:58:23;;;;;;;58.05;32.35;;;5.40;76.60;;;;;;4632054;28;20447;-75
2021/11/26 03:00:49;;;;;;;56.45;29.25;;;5.40;77.00;;;;;;4632164;28;20053;-75
2021/11/26 03:03:05;;;;;;;60.40;30.77;;;5.40;76.80;;;;;;4631639;28;20428;-74
2021/11/26 03:05:22;;;;;;;60.50;32.17;;;5.40;76.70;;;;;;4650014;28;20383;-74
2021/11/26 03:07:41;;;;;;;59.83;30.80;;;5.50;76.80;;;;;;4649383;28;20075;-74
2021/11/26 03:10:00;;;;;;;56.05;29.95;;;5.50;76.70;;;;;;4650265;28;20044;-74
2021/11/26 03:12:17;;;;;;;61.05;32.10;;;5.50;76.80;;;;;;4649092;28;20045;-74
2021/11/26 03:14:35;;;;;;;55.35;30.42;;;5.50;76.80;;;;;;4632346;28;20072;-75
2021/11/26 03:16:52;;;;;;;53.92;29.95;;;5.60;76.90;;;;;;4631031;28;20049;-75
2021/11/26 03:19:09;;;;;;;58.15;29.90;;;5.60;76.80;;;;;;4632529;28;20045;-75
2021/11/26 03:21:25;;;;;;;58.33;30.08;;;5.60;76.80;;;;;;4648489;28;20072;-75
2021/11/26 03:23:42;;;;;;;57.13;30.70;;;5.60;76.80;;;;;;4632082;28;20044;-74
2021/11/26 03:25:59;;;;;;;60.95;31.88;;;5.60;76.90;;;;;;4648510;28;20044;-75
2021/11/26 03:28:17;;;;;;;58.90;31.58;;;5.60;76.80;;;;;;4649932;28;20513;-75
2021/11/26 03:30:34;;;;;;;59.47;32.20;;;5.60;76.90;;;;;;4648801;28;20413;-75
2021/11/26 03:32:51;;;;;;;59.47;31.63;;;5.60;76.90;;;;;;4631716;28;20049;-74
2021/11/26 03:35:12;;;;;;;58.47;30.88;;;5.70;77.10;;;;;;4631197;28;20068;-74
2021/11/26 03:37:28;;;;;;;56.97;31.45;;;5.70;77.10;;;;;;4631239;28;20123;-75
2021/11/26 03:39:45;;;;;;;60.60;29.80;;;5.70;77.80;;;;;;4631349;28;20477;-74
2021/11/26 03:42:04;;;;;;;56.58;29.63;;;5.70;77.20;;;;;;4648791;28;20135;-75
2021/11/26 03:44:22;;;;;;;56.70;30.75;;;5.70;77.10;;;;;;4631543;28;20465;-74
2021/11/26 03:46:38;;;;;;;55.90;31.25;;;5.80;78.00;;;;;;4630647;28;20053;-76
2021/11/26 03:48:57;;;;;;;54.70;30.10;;;5.80;77.30;;;;;;4631443;28;20072;-74
2021/11/26 03:51:14;;;;;;;56.03;30.45;;;5.80;77.20;;;;;;4630529;28;20079;-74
2021/11/26 03:53:30;;;;;;;55.30;29.42;;;5.80;78.00;;;;;;4631457;28;20543;-74
2021/11/26 03:55:47;;;;;;;51.55;28.65;;;5.90;77.30;;;;;;4630392;28;20075;-73
2021/11/26 03:58:04;;;;;;;52.95;28.95;;;5.90;77.30;;;;;;4631603;28;20052;-74
2021/11/26 04:00:21;;;;;;;61.05;30.55;;;5.90;78.10;;;;;;4630014;28;20080;-74
2021/11/26 04:02:38;;;;;;;56.05;29.15;;;5.90;77.40;;;;;;4631950;28;20044;-74
2021/11/26 04:04:57;;;;;;;49.80;28.10;;;6.00;77.50;;;;;;4630350;28;20052;-75
2021/11/26 04:07:13;;;;;;;56.72;29.10;;;6.00;77.70;;;;;;4631696;28;20484;-74
2021/11/26 04:09:33;;;;;;;50.67;27.90;;;6.10;77.80;;;;;;4630469;28;20076;-74
2021/11/26 04:11:50;;;;;;;50.53;27.15;;;6.10;78.00;;;;;;4649020;28;20048;-74
2021/11/26 04:14:31;;;;;;;51.40;27.30;;;6.10;77.70;;;;;;4631009;28;20044;-74
2021/11/26 04:16:50;;;;;;;48.05;26.48;;;6.20;77.80;;;;;;4648339;28;20072;-75
2021/11/26 04:19:08;;;;;;;47.45;25.58;;;6.20;77.80;;;;;;4631079;28;20064;-76
2021/11/26 04:21:27;;;;;;;46.22;25.23;;;6.20;77.70;;;;;;4630045;28;20044;-76
2021/11/26 04:23:46;;;;;;;49.78;24.80;;;6.20;77.70;;;;;;4631306;28;20045;-75
2021/11/26 04:26:04;;;;;;;46.75;24.58;;;6.20;77.80;;;;;;4630081;28;20055;-76
2021/11/26 04:28:20;;;;;;;46.55;25.42;;;6.20;78.00;;;;;;4649272;28;20052;-76
2021/11/26 04:30:38;;;;;;;42.00;23.75;;;6.20;78.10;;;;;;4629881;28;20045;-75
2021/11/26 04:32:54;;;;;;;45.42;23.70;;;6.20;78.10;;;;;;4631354;28;20123;-75
2021/11/26 04:35:11;;;;;;;45.20;24.63;;;6.20;78.20;;;;;;4650466;28;20048;-75
2021/11/26 04:37:28;;;;;;;48.50;26.02;;;6.20;78.20;;;;;;4635353;28;20648;-75
2021/11/26 04:39:45;;;;;;;46.83;25.67;;;6.30;78.40;;;;;;4633831;28;20111;-75
2021/11/26 04:42:01;;;;;;;48.28;25.95;;;6.30;78.30;;;;;;4634609;28;20172;-75
2021/11/26 04:44:18;;;;;;;43.75;24.92;;;6.30;78.40;;;;;;4634047;28;20080;-75
2021/11/26 04:46:36;;;;;;;45.05;24.50;;;6.30;78.40;;;;;;4634410;28;20049;-75
2021/11/26 04:48:52;;;;;;;44.63;25.13;;;6.30;78.40;;;;;;4634130;28;20052;-75
2021/11/26 04:51:11;;;;;;;47.05;24.38;;;6.30;78.50;;;;;;4651933;28;20491;-74
2021/11/26 04:53:27;;;;;;;48.22;26.02;;;6.30;78.50;;;;;;4652161;28;20051;-74
2021/11/26 04:55:43;;;;;;;48.78;25.33;;;6.30;78.80;;;;;;4651643;28;20064;-74
2021/11/26 04:58:02;;;;;;;49.97;26.00;;;6.20;78.90;;;;;;4634573;28;20069;-75
2021/11/26 05:00:20;;;;;;;46.42;25.92;;;6.20;79.40;;;;;;4633599;28;20215;-75
2021/11/26 05:02:38;;;;;;;53.25;26.50;;;6.20;79.60;;;;;;4634460;28;20475;-75
2021/11/26 05:04:57;;;;;;;47.65;24.55;;;6.20;79.70;;;;;;4633371;28;20095;-75
2021/11/26 05:07:15;;;;;;;47.70;27.10;;;6.20;79.90;;;;;;4634450;28;20072;-75
2021/11/26 05:09:34;;;;;;;44.45;25.13;;;6.20;80.00;;;;;;4651018;28;20056;-75
2021/11/26 05:11:55;;;;;;;46.22;24.27;;;6.20;80.20;;;;;;4634814;28;20124;-75
2021/11/26 05:14:17;;;;;;;47.47;25.50;;;6.30;80.20;;;;;;4633110;28;20042;-74
2021/11/26 05:16:33;;;;;;;49.42;24.65;;;6.30;80.00;;;;;;4634201;28;20087;-75
2021/11/26 05:18:54;;;;;;;46.58;24.55;;;6.30;79.90;;;;;;4633370;28;20414;-74
2021/11/26 05:21:11;;;;;;;51.65;25.83;;;6.30;80.10;;;;;;4633768;28;20041;-75
2021/11/26 05:23:27;;;;;;;45.08;24.42;;;6.20;80.00;;;;;;4651598;28;20162;-75
2021/11/26 05:25:44;;;;;;;44.92;24.25;;;6.20;80.20;;;;;;4651557;28;20068;-76
2021/11/26 05:28:01;;;;;;;47.63;25.35;;;6.20;80.20;;;;;;4651689;28;20438;-75
2021/11/26 05:30:18;;;;;;;44.80;23.73;;;6.20;80.40;;;;;;4651148;28;20048;-74
2021/11/26 05:32:34;;;;;;;45.17;23.70;;;6.30;80.50;;;;;;4633720;28;20139;-75
2021/11/26 05:34:52;;;;;;;46.53;25.63;;;6.20;80.20;;;;;;4651015;28;20052;-75
2021/11/26 05:37:09;;;;;;;47.53;25.60;;;6.20;80.40;;;;;;4651741;28;20048;-74
2021/11/26 05:39:26;;;;;;;43.92;25.95;;;6.30;80.70;;;;;;4632813;28;20471;-75
2021/11/26 05:41:42;;;;;;;44.70;24.05;;;6.30;80.60;;;;;;4651774;28;20044;-74
2021/11/26 05:43:59;;;;;;;43.38;23.77;;;6.30;80.50;;;;;;4650499;28;20048;-75
2021/11/26 05:46:16;;;;;;;41.53;23.17;;;6.40;80.70;;;;;;4633808;28;20519;-74
2021/11/26 05:48:32;;;;;;;40.40;22.20;;;6.40;80.60;;;;;;4632385;28;20056;-75
2021/11/26 05:50:50;;;;;;;42.33;22.90;;;6.40;80.50;;;;;;4651819;28;20044;-76
2021/11/26 05:53:07;;;;;;;43.17;22.75;;;6.40;80.50;;;;;;4650207;28;20508;-77
2021/11/26 05:55:27;;;;;;;45.33;22.75;;;6.40;80.40;;;;;;4651609;28;20045;-76
2021/11/26 05:57:46;;;;;;;40.92;22.23;;;6.40;80.50;;;;;;4650595;28;20052;-75
2021/11/26 06:00:07;;;;;;;40.58;23.17;;;6.40;80.70;;;;;;4651028;28;20087;-75
2021/11/26 06:02:25;;;;;;;39.08;21.67;;;6.50;81.50;;;;;;4632817;28;20088;-74
2021/11/26 06:04:41;;;;;;;37.53;22.17;;;6.50;80.70;;;;;;4632544;28;20045;-73
2021/11/26 06:07:00;;;;;;;41.83;22.27;;;6.60;80.60;;;;;;4651045;28;20451;-74
2021/11/26 06:09:16;;;;;;;40.30;21.83;;;6.60;80.70;;;;;;4632389;28;20050;-74
2021/11/26 06:11:33;;;;;;;43.30;21.75;;;6.60;80.60;;;;;;4633027;28;20048;-77
2021/11/26 06:13:49;;;;;;;40.97;22.05;;;6.70;80.50;;;;;;4650159;28;20073;-79
2021/11/26 06:16:06;;;;;;;38.70;21.23;;;6.70;80.60;;;;;;4651061;28;20485;-78
2021/11/26 06:18:23;;;;;;;39.67;22.35;;;6.70;80.50;;;;;;4631947;28;20128;-76
2021/11/26 06:20:39;;;;;;;39.03;22.33;;;6.70;80.40;;;;;;4650950;28;20068;-76
2021/11/26 06:22:57;;;;;;;38.42;20.85;;;6.70;80.30;;;;;;4647996;28;20047;-75
2021/11/26 06:25:17;;;;;;;39.72;21.75;;;6.70;80.40;;;;;;4651563;28;20486;-75
2021/11/26 06:27:34;;;;;;;41.08;21.90;;;6.70;80.50;;;;;;4649624;28;20068;-75
2021/11/26 06:29:50;;;;;;;41.60;22.08;;;6.80;80.60;;;;;;4649381;28;20050;-76
2021/11/26 06:32:07;;;;;;;39.67;21.50;;;6.70;80.40;;;;;;4629586;28;20509;-75
2021/11/26 06:34:24;;;;;;;40.80;22.67;;;6.70;80.50;;;;;;4648432;28;20114;-77
2021/11/26 06:36:41;;;;;;;38.10;20.65;;;6.80;80.50;;;;;;4629907;28;20080;-75
2021/11/26 06:39:00;;;;;;;39.00;22.02;;;6.80;80.40;;;;;;4648112;28;20090;-75
2021/11/26 06:41:17;;;;;;;36.28;20.17;;;6.80;80.40;;;;;;4648061;28;20445;-75
2021/11/26 06:43:33;;;;;;;36.13;20.25;;;6.80;80.30;;;;;;4647760;28;20068;-75
2021/11/26 06:45:50;;;;;;;41.03;21.40;;;6.80;80.30;;;;;;4632641;28;20323;-75
2021/11/26 06:48:06;;;;;;;39.78;21.13;;;6.80;80.50;;;;;;4631712;28;20069;-75
2021/11/26 06:50:23;;;;;;;37.88;21.48;;;6.80;80.60;;;;;;4632069;28;20048;-75
2021/11/26 06:52:40;;;;;;;38.50;21.25;;;6.90;80.70;;;;;;4649258;28;20110;-75
2021/11/26 06:55:03;;;;;;;38.30;20.67;;;6.90;80.60;;;;;;4632744;28;20484;-75
2021/11/26 06:57:20;;;;;;;38.83;20.75;;;7.00;80.60;;;;;;4648742;28;20044;-75
2021/11/26 06:59:37;;;;;;;38.33;20.55;;;7.00;80.40;;;;;;4650299;28;20055;-74
2021/11/26 07:01:54;;;;;;;38.83;20.58;;;7.00;80.30;;;;;;4631215;28;20072;-75
2021/11/26 07:04:13;;;;;;;35.90;20.52;;;7.10;80.40;;;;;;4632418;28;20051;-75
2021/11/26 07:06:29;;;;;;;44.05;22.48;;;7.10;80.40;;;;;;4630925;28;20044;-74
2021/11/26 07:08:46;;;;;;;35.03;19.05;;;7.10;80.20;;;;;;4632389;28;20443;-74
2021/11/26 07:11:03;;;;;;;36.45;19.05;;;7.10;80.20;;;;;;4630824;28;20048;-73
2021/11/26 07:13:20;;;;;;;38.25;20.58;;;7.20;80.10;;;;;;4649979;28;20047;-74
2021/11/26 07:15:36;;;;;;;41.67;21.90;;;7.20;80.20;;;;;;4649101;28;20052;-74
2021/11/26 07:17:53;;;;;;;36.25;20.30;;;7.20;80.20;;;;;;4649578;28;20040;-74
2021/11/26 07:20:12;;;;;;;35.60;19.73;;;7.20;80.00;;;;;;4631493;28;20036;-73
2021/11/26 07:22:28;;;;;;;37.80;20.70;;;7.20;80.10;;;;;;4631384;28;20174;-72
2021/11/26 07:24:45;;;;;;;36.40;20.48;;;7.30;80.10;;;;;;4649484;28;20070;-74
2021/11/26 07:27:06;;;;;;;38.35;21.42;;;7.30;80.00;;;;;;4648954;28;20052;-73
2021/11/26 07:29:22;;;;;;;35.97;19.88;;;7.30;79.90;;;;;;4649862;28;20071;-73
2021/11/26 07:31:38;;;;;;;37.55;20.52;;;7.40;80.00;;;;;;4630983;28;20051;-73
2021/11/26 07:33:56;;;;;;;36.88;19.83;;;7.40;80.00;;;;;;4649614;28;20135;-74
2021/11/26 07:36:13;;;;;;;35.42;19.50;;;7.50;79.90;;;;;;4630884;28;20049;-74
2021/11/26 07:38:29;;;;;;;34.72;18.77;;;7.50;79.80;;;;;;4631680;28;20139;-74
2021/11/26 07:40:46;;;;;;;36.72;19.23;;;7.50;79.70;;;;;;4630578;28;20286;-73
2021/11/26 07:43:03;;;;;;;33.65;20.02;;;7.60;79.70;;;;;;4631556;28;20101;-73
2021/11/26 07:45:20;;;;;;;36.05;19.92;;;7.60;79.60;;;;;;4630081;28;20475;-74
2021/11/26 07:47:36;;;;;;;37.25;19.90;;;7.60;79.50;;;;;;4631800;28;20100;-73
2021/11/26 07:49:53;;;;;;;34.40;19.23;;;7.70;80.20;;;;;;4630309;28;20041;-73
2021/11/26 07:52:11;;;;;;;35.50;19.15;;;7.70;79.40;;;;;;4649695;28;20045;-74
2021/11/26 07:54:30;;;;;;;36.30;19.23;;;7.80;79.30;;;;;;4630411;28;20056;-74
2021/11/26 07:56:47;;;;;;;34.45;19.83;;;7.80;79.20;;;;;;4631192;28;20072;-75
2021/11/26 07:59:05;;;;;;;32.58;18.40;;;7.80;79.00;;;;;;4648663;28;20044;-75
2021/11/26 08:01:21;;;;;;;32.13;19.13;;;7.80;79.00;;;;;;4630883;28;20041;-75
2021/11/26 08:03:38;;;;;;;34.22;19.02;;;7.80;78.90;;;;;;4648749;28;20072;-75
2021/11/26 08:05:56;;;;;;;39.42;19.20;;;7.90;79.00;;;;;;4630595;28;20342;-75
2021/11/26 08:08:12;;;;;;;34.22;18.98;;;7.90;78.80;;;;;;4648534;28;20124;-74
2021/11/26 08:10:29;;;;;;;31.77;16.83;;;7.90;78.80;;;;;;4630029;28;20116;-75
2021/11/26 08:12:45;;;;;;;29.55;16.85;;;7.90;78.60;;;;;;4631011;28;20057;-75
2021/11/26 08:15:09;;;;;;;30.05;15.88;;;8.00;78.30;;;;;;4630392;28;20091;-76
2021/11/26 08:17:25;;;;;;;29.83;16.08;;;8.00;78.30;;;;;;4649131;28;20074;-75
2021/11/26 08:19:42;;;;;;;30.45;16.95;;;8.00;78.10;;;;;;4647962;28;20059;-75
2021/11/26 08:22:00;;;;;;;33.75;16.88;;;8.00;78.00;;;;;;4631228;28;20041;-75
2021/11/26 08:24:20;;;;;;;30.30;16.48;;;8.00;78.20;;;;;;4629739;28;20076;-75
2021/11/26 08:26:37;;;;;;;31.92;15.90;;;8.10;77.80;;;;;;4631160;28;20044;-75
2021/11/26 08:28:54;;;;;;;28.27;15.77;;;8.00;77.80;;;;;;4629959;28;20045;-74
2021/11/26 08:31:12;;;;;;;32.55;16.85;;;8.10;78.60;;;;;;4649040;28;20068;-75
2021/11/26 08:33:29;;;;;;;27.35;15.75;;;8.10;77.80;;;;;;4648283;28;20048;-75
2021/11/26 08:35:48;;;;;;;25.77;15.30;;;8.10;77.60;;;;;;4648748;28;20155;-75
2021/11/26 08:38:05;;;;;;;30.33;16.58;;;8.10;77.40;;;;;;4648534;28;20064;-75
2021/11/26 08:40:23;;;;;;;26.77;15.35;;;8.20;77.50;;;;;;4630289;28;20052;-75
2021/11/26 08:42:40;;;;;;;28.45;16.20;;;8.20;77.40;;;;;;4630868;28;20542;-75
2021/11/26 08:44:56;;;;;;;30.25;16.08;;;8.20;77.20;;;;;;4629675;28;20131;-75
2021/11/26 08:47:17;;;;;;;28.50;14.60;;;8.30;77.20;;;;;;4648924;28;20040;-76
2021/11/26 08:49:33;;;;;;;28.65;15.43;;;8.30;77.10;;;;;;4647808;28;20491;-76
2021/11/26 08:51:51;;;;;;;28.90;14.77;;;8.30;77.10;;;;;;4614396;28;20080;-75
2021/11/26 08:54:08;;;;;;;27.92;14.23;;;8.30;77.70;;;;;;4629908;28;20079;-75
2021/11/26 08:56:26;;;;;;;31.63;15.60;;;8.30;76.90;;;;;;4648654;28;20075;-75
2021/11/26 08:59:07;;;;;;;28.92;15.98;;;8.40;76.60;;;;;;4647705;28;20075;-75
2021/11/26 09:01:24;;;;;;;25.23;14.05;;;8.40;76.70;;;;;;4648904;28;20046;-75
2021/11/26 09:03:44;;;;;;;29.48;15.95;;;8.40;76.50;;;;;;4629624;28;20048;-75
2021/11/26 09:06:02;;;;;;;31.02;15.40;;;8.40;76.60;;;;;;4648462;28;20098;-74
2021/11/26 09:08:18;;;;;;;28.27;14.60;;;8.40;76.40;;;;;;4630185;28;20044;-74
2021/11/26 09:10:37;;;;;;;23.55;13.98;;;8.50;76.40;;;;;;4630267;28;20045;-74
2021/11/26 09:12:54;;;;;;;25.73;14.18;;;8.50;76.30;;;;;;4630372;28;20053;-75
2021/11/26 09:15:13;;;;;;;24.67;13.35;;;8.50;76.00;;;;;;4629902;28;20047;-75
2021/11/26 09:17:29;;;;;;;27.65;14.95;;;8.50;75.80;;;;;;4630510;28;20052;-75
2021/11/26 09:19:48;;;;;;;26.90;14.40;;;8.50;76.00;;;;;;4629926;28;20113;-75
2021/11/26 09:22:05;;;;;;;25.73;13.88;;;8.50;75.80;;;;;;4633944;28;20055;-74
2021/11/26 09:24:21;;;;;;;26.73;15.27;;;8.50;75.60;;;;;;4633253;28;20132;-75
2021/11/26 09:26:38;;;;;;;26.90;15.20;;;8.50;75.80;;;;;;4633793;28;20049;-74
2021/11/26 09:28:55;;;;;;;25.02;14.32;;;8.50;75.80;;;;;;4650912;28;20048;-74
2021/11/26 09:31:11;;;;;;;23.35;14.70;;;8.50;76.00;;;;;;4633840;28;20389;-75
2021/11/26 09:33:35;;;;;;;25.30;14.82;;;8.60;76.80;;;;;;4633019;28;20538;-75
2021/11/26 09:35:53;;;;;;;26.08;14.32;;;8.60;75.90;;;;;;4633993;28;20059;-75
2021/11/26 09:38:09;;;;;;;25.63;13.77;;;8.60;75.80;;;;;;4632726;28;20045;-75
2021/11/26 09:40:26;;;;;;;26.63;14.05;;;8.60;75.60;;;;;;4652032;28;20083;-75
2021/11/26 09:42:43;;;;;;;27.42;13.38;;;8.70;75.60;;;;;;4650753;28;20045;-75
2021/11/26 09:45:00;;;;;;;24.77;14.23;;;8.70;75.30;;;;;;4633484;28;20051;-76
2021/11/26 09:47:22;;;;;;;28.25;14.18;;;8.70;75.30;;;;;;4651112;28;20427;-76
2021/11/26 09:49:39;;;;;;;24.20;13.05;;;8.70;75.20;;;;;;4633061;28;20048;-76
2021/11/26 09:51:57;;;;;;;23.48;13.82;;;8.80;75.10;;;;;;4651180;28;20384;-76
2021/11/26 09:54:13;;;;;;;25.00;14.18;;;8.80;74.70;;;;;;4650592;28;20061;-76
2021/11/26 09:56:31;;;;;;;23.55;13.52;;;8.80;74.50;;;;;;4651203;28;20044;-76
2021/11/26 09:58:47;;;;;;;25.25;13.65;;;8.80;74.60;;;;;;4632565;28;20056;-75
2021/11/26 10:01:06;;;;;;;23.63;12.85;;;8.80;74.60;;;;;;4633258;28;20153;-76
2021/11/26 10:03:40;;;;;;;23.17;13.10;;;8.90;74.50;;;;;;4650567;28;20064;-75
2021/11/26 10:05:56;;;;;;;24.48;13.43;;;8.90;74.30;;;;;;4617560;28;20065;-75
2021/11/26 10:08:22;;;;;;;25.77;14.13;;;8.90;74.20;;;;;;4632161;28;20068;-75
2021/11/26 10:10:41;;;;;;;25.23;14.48;;;8.90;74.30;;;;;;4651361;28;20437;-75
2021/11/26 10:12:59;;;;;;;24.73;13.05;;;8.90;74.20;;;;;;4632285;28;20052;-75
2021/11/26 10:15:33;;;;;;;24.25;13.82;;;9.00;74.20;;;;;;4650999;28;20431;-75
2021/11/26 10:17:49;;;;;;;24.67;14.40;;;9.00;74.10;;;;;;4650817;28;20041;-77
2021/11/26 10:20:11;;;;;;;28.70;14.73;;;9.00;74.00;;;;;;4632482;28;20040;-75
2021/11/26 10:22:32;;;;;;;23.98;13.20;;;8.90;73.90;;;;;;4649521;28;20122;-76
2021/11/26 10:25:04;;;;;;;22.15;12.48;;;8.90;74.10;;;;;;4632134;28;20048;-74
2021/11/26 10:27:21;;;;;;;24.75;13.98;;;9.00;74.00;;;;;;4650921;28;20056;-76
2021/11/26 10:29:39;;;;;;;23.35;13.80;;;8.90;74.00;;;;;;4631944;28;20510;-76
2021/11/26 10:32:04;;;;;;;26.63;14.35;;;8.90;74.10;;;;;;4632044;28;20041;-76
2021/11/26 10:34:27;;;;;;;26.73;14.43;;;8.90;74.20;;;;;;4649860;28;20047;-75
2021/11/26 10:36:51;;;;;;;42.22;20.95;;;8.90;74.20;;;;;;4650532;28;20083;-76
2021/11/26 10:39:12;;;;;;;24.50;13.35;;;8.90;74.40;;;;;;4630721;28;20045;-76
2021/11/26 10:41:35;;;;;;;26.38;14.38;;;9.00;74.40;;;;;;4632119;28;20045;-76
2021/11/26 10:43:55;;;;;;;29.27;15.20;;;9.00;74.50;;;;;;4650269;28;20517;-76
2021/11/26 10:48:58;;;;;;;25.85;14.07;;;9.00;74.70;;;;;;4617329;28;20151;-74
2021/11/26 10:51:34;;;;;;;28.52;15.75;;;9.00;74.80;;;;;;4629432;28;20377;-76
2021/11/26 10:56:52;;;;;;;30.10;16.30;;;9.00;75.00;;;;;;4647212;28;20460;-76
2021/11/26 10:59:14;;;;;;;26.02;15.43;;;9.00;75.30;;;;;;4629297;28;20048;-75
2021/11/26 11:01:43;;;;;;;25.92;14.60;;;9.00;75.40;;;;;;4648772;28;20068;-75
2021/11/26 11:04:14;;;;;;;30.52;15.15;;;9.00;76.10;;;;;;4649393;28;20056;-75
2021/11/26 11:06:30;;;;;;;25.52;14.32;;;9.00;75.40;;;;;;4631885;28;20063;-75
2021/11/26 11:08:59;;;;;;;28.25;15.38;;;9.00;75.40;;;;;;4631118;28;20099;-75
2021/11/26 11:11:16;;;;;;;23.55;14.68;;;9.00;75.60;;;;;;4632112;28;20079;-75
2021/11/26 11:13:32;;;;;;;25.30;14.60;;;9.00;75.60;;;;;;4631352;28;20041;-73
2021/11/26 11:15:52;;;;;;;29.63;15.45;;;9.00;75.70;;;;;;4631956;28;20049;-75
2021/11/26 11:18:10;;;;;;;26.85;16.08;;;9.00;75.90;;;;;;4630283;28;20047;-75
2021/11/26 11:20:29;;;;;;;28.02;15.95;;;9.00;76.00;;;;;;4647219;28;20078;-75
2021/11/26 11:22:46;;;;;;;27.38;15.27;;;9.00;76.20;;;;;;4630764;28;20380;-75
2021/11/26 11:25:05;;;;;;;28.60;16.63;;;9.00;76.30;;;;;;4630958;28;20069;-75
2021/11/26 11:27:21;;;;;;;26.95;16.27;;;9.00;76.40;;;;;;4631634;28;20084;-74
2021/11/26 11:29:38;;;;;;;27.52;15.38;;;9.00;76.50;;;;;;4630829;28;20052;-74
2021/11/26 11:32:00;;;;;;;27.70;15.52;;;9.00;76.50;;;;;;4631371;28;20523;-75
2021/11/26 11:34:22;;;;;;;38.28;20.90;;;9.00;76.50;;;;;;4630908;28;20055;-74
2021/11/26 11:36:40;;;;;;;47.17;27.02;;;9.00;76.70;;;;;;4631525;28;20557;-76
2021/11/26 11:38:58;;;;;;;35.53;19.23;;;9.00;77.00;;;;;;4648471;28;20044;-75
2021/11/26 11:41:15;;;;;;;28.90;16.60;;;9.00;77.20;;;;;;4631437;28;20063;-76
2021/11/26 11:43:41;;;;;;;29.17;16.50;;;9.00;77.20;;;;;;4648063;28;20054;-75
2021/11/26 11:46:02;;;;;;;27.67;15.88;;;9.00;77.40;;;;;;4631436;28;20052;-76
2021/11/26 11:48:25;;;;;;;27.92;16.40;;;9.00;77.50;;;;;;4648464;28;20075;-76
2021/11/26 11:50:44;;;;;;;27.98;16.27;;;9.00;77.50;;;;;;4648951;28;20462;-76
2021/11/26 11:53:02;;;;;;;28.35;14.77;;;8.90;77.70;;;;;;4648617;28;20443;-76
2021/11/26 11:55:24;;;;;;;31.45;16.58;;;8.90;77.60;;;;;;4630772;28;20129;-75